Messwerte Guanare

Temperatur

Temperatur
°C
1623423600 11.00 11.00 26
1623427200 12.00 12.00 28
1623430800 13.00 13.00 29
1623434400 14.00 14.00 29
1623438000 15.00 15.00 35
1623441600 16.00 16.00 30
1623445200 17.00 17.00 30
1623448800 18.00 18.00 31
1623452400 19.00 19.00
1623456000 20.00 20.00 26
1623459600 21.00 21.00 25
1623463200 22.00 22.00 30
1623466800 23.00 23.00 25
1623470400 0.00 0.00
1623474000 1.00 1.00 26
1623477600 2.00 2.00 25
1623481200 3.00 3.00 25
1623484800 4.00 4.00 26
1623488400 5.00 5.00 26
1623492000 6.00 6.00 24
1623495600 7.00 7.00 24
1623499200 8.00 8.00 18
1623502800 9.00 9.00 19
1623506400 10.00 10.00 27

Aktuellste Messwerte

Wettercharakter
Wetter: recht sonnig
Temperatur
28 °C
Feuchtigkeit
75 %
Wind
5 km/hWindrichtung: Nordost
Luftdruck
1015 hPa
Messzeit: 12. Juni 2021, 10.00Datenquelle: METAR

Weitere Messstationen in der Nähe

Messstation Temperatur Entfernung
Barinas 34 °C 70 km
Barquisimeto 23 °C 125 km
San Juan de los Morros 27 °C 281 km
Cúcuta 30 °C 330 km
Maiquetía 28 °C 349 km
Caracas 24 °C 353 km
Willemstad/ Curaçao 30 °C 363 km

Wind

Windrichtung Böen Mittelwind
° km/h km/h
1623423600 11.00 10.00 - 11.00 170° 5
1623427200 12.00 11.00 - 12.00 10° 5
1623430800 13.00 12.00 - 13.00 110° 5
1623434400 14.00 13.00 - 14.00 40° 10
1623438000 15.00 14.00 - 15.00 80° 10
1623441600 16.00 15.00 - 16.00 90° 5
1623445200 17.00 16.00 - 17.00 60° 5
1623448800 18.00 17.00 - 18.00 90° 5
1623452400 19.00 18.00 - 19.00
1623456000 20.00 19.00 - 20.00 60° 20
1623459600 21.00 20.00 - 21.00 20° 10
1623463200 22.00 21.00 - 22.00 360° 5
1623466800 23.00 22.00 - 23.00 10° 5
1623470400 0.00 23.00 - 0.00
1623474000 1.00 0.00 - 1.00 10° 5
1623477600 2.00 1.00 - 2.00 270° 5
1623481200 3.00 2.00 - 3.00 320° 5
1623484800 4.00 3.00 - 4.00 350° 10
1623488400 5.00 4.00 - 5.00 350° 5
1623492000 6.00 5.00 - 6.00 270° 5
1623495600 7.00 6.00 - 7.00 310° 5
1623499200 8.00 7.00 - 8.00 330° 5
1623502800 9.00 8.00 - 9.00 310° 5
1623506400 10.00 9.00 - 10.00 210° 5

Ihre Wetterstation

Fehlt Ihre Wetterstation auf unserem Portal?

Schreiben Sie an network@meteonews.ch

Klima

Wann ist es am wärmsten? Wann regnet es am wenigsten? Unsere Klimadaten geben Auskunft.